< Typhoon 198405 1984 Season Typhoon 198407 >
Typhoon 198406 (DINAH)
General InformationTrack Information on Google MapsDetailed Wind InformationList of All Images || Disaster Info.ResourceGoogle EarthGE AnimationAtom FeedGeoJSON
Detalied Best Track (Time Zone = UTC)
Year Month Day Hour Lat. Long. Pressure (hPa) Wind (kt) Class Image Chart
1984 7 24 00 21.5 157.5 1004 0 2 Image Chart
1984 7 24 06 21.7 156.6 1000 0 2 Image Chart
1984 7 24 12 21.3 155.7 996 0 2 Image Chart
1984 7 24 18 21.0 154.8 992 35 3 Image Chart
1984 7 25 00 20.8 153.9 990 45 3 Image Chart
1984 7 25 06 20.1 152.9 985 50 4 Image Chart
1984 7 25 12 19.7 152.3 985 55 4 Image Chart
1984 7 25 18 19.5 151.8 980 55 4 Image Chart
1984 7 26 00 19.5 151.4 975 65 5 Image Chart
1984 7 26 06 19.7 150.9 965 65 5 Image Chart
1984 7 26 12 19.9 150.4 960 65 5 Image Chart
1984 7 26 18 20.0 150.3 950 75 5 Image Chart
1984 7 27 00 20.2 150.2 950 85 5 Image Chart
1984 7 27 06 20.5 150.4 950 85 5 Image Chart
1984 7 27 12 20.7 150.7 965 65 5 Image Chart
1984 7 27 18 20.8 151.0 965 65 5 Image Chart
1984 7 28 00 21.0 151.4 960 70 5 Image Chart
1984 7 28 06 21.1 151.9 950 70 5 Image Chart
1984 7 28 12 20.9 152.7 920 90 5 Image Chart
1984 7 28 18 21.7 153.2 920 90 5 Image Chart
1984 7 29 00 22.8 153.7 915 100 5 Image Chart
1984 7 29 06 24.1 154.1 925 100 5 Image Chart
1984 7 29 12 25.3 154.5 935 90 5 Image Chart
1984 7 29 18 26.7 154.9 940 90 5 Image Chart
1984 7 30 00 28.3 155.1 945 90 5 Image Chart
1984 7 30 06 29.8 155.5 955 90 5 Image Chart
1984 7 30 12 31.4 156.1 960 75 5 Image Chart
1984 7 30 18 32.9 156.9 965 70 5 Image Chart
1984 7 31 00 34.4 158.0 970 60 4 Image Chart
1984 7 31 06 35.8 159.5 970 60 4 Image Chart
1984 7 31 12 36.9 161.3 980 50 4 Image Chart
1984 7 31 18 37.7 163.5 980 50 4 Image Chart
1984 8 1 00 38.8 166.5 980 50 4 Image Chart
1984 8 1 06 40.0 170.5 980 50 4 Image Chart
1984 8 1 12 41.0 174.2 980 50 4 Image Chart
1984 8 1 18 42.0 178.0 984 0 6 Image Chart
1984 8 2 00 44.0 181.0 988 0 6 Image Chart
Japan Meteorological Agency Best Track Data | Correction Date : 1992-10-21
< Typhoon 198405 1984 Season Typhoon 198407 >

Help